createdAt,value
2022-10-07T00:13:41.436Z,13.30
2022-10-07T00:28:46.377Z,11.33
2022-10-07T00:43:50.785Z,10.10
2022-10-07T00:58:55.337Z,9.73
2022-10-07T01:14:11.803Z,7.77
2022-10-07T01:29:19.677Z,8.33
2022-10-07T01:44:26.468Z,8.63
2022-10-07T01:59:55.545Z,8.57
2022-10-07T02:15:03.955Z,9.03
2022-10-07T02:30:12.178Z,7.60
2022-10-07T02:45:24.503Z,7.33
2022-10-07T03:00:34.485Z,9.17
2022-10-07T03:15:42.576Z,8.63
2022-10-07T03:46:00.547Z,21.40
2022-10-07T04:01:10.369Z,9.70
2022-10-07T04:16:18.526Z,14.00
2022-10-07T04:31:23.803Z,10.80
2022-10-07T04:46:34.941Z,11.43
2022-10-07T05:01:46.345Z,13.87
2022-10-07T05:16:51.049Z,10.33
2022-10-07T05:32:04.522Z,20.37
2022-10-07T05:47:10.394Z,11.63
2022-10-07T06:02:17.184Z,12.20
2022-10-07T06:17:23.065Z,11.90
2022-10-07T06:32:32.657Z,13.73
2022-10-07T06:47:38.738Z,11.77
2022-10-07T07:02:44.919Z,11.37
2022-10-07T07:17:49.968Z,10.93
2022-10-07T07:32:55.435Z,11.00
2022-10-07T07:48:00.291Z,10.17
2022-10-07T08:03:05.376Z,8.97
2022-10-07T08:18:10.660Z,9.73
2022-10-07T08:33:15.288Z,8.63
2022-10-07T08:48:25.137Z,9.20
2022-10-07T09:03:43.664Z,8.43
2022-10-07T09:18:53.475Z,7.43
2022-10-07T09:33:57.829Z,8.97
2022-10-07T10:04:16.849Z,14.50
2022-10-07T10:19:25.767Z,4.10
2022-10-07T10:34:41.013Z,5.70
2022-10-07T10:49:54.250Z,4.93
2022-10-07T11:05:03.055Z,5.17
2022-10-07T11:20:18.417Z,7.43
2022-10-07T11:50:38.043Z,9.63
2022-10-07T12:06:07.541Z,5.27
2022-10-07T12:21:12.325Z,5.47
2022-10-07T12:36:29.892Z,4.87
2022-10-07T12:51:39.646Z,4.47
2022-10-07T13:07:27.878Z,4.10
2022-10-07T13:22:32.472Z,3.97
2022-10-07T13:37:38.722Z,5.47
2022-10-07T13:52:47.066Z,4.90
2022-10-07T14:07:55.580Z,3.53
2022-10-07T14:23:01.587Z,4.37
2022-10-07T14:38:28.432Z,3.43
2022-10-07T14:53:33.262Z,2.10
2022-10-07T15:08:37.607Z,2.30
2022-10-07T15:23:42.076Z,3.00
2022-10-07T15:38:46.970Z,3.40
2022-10-07T15:53:51.361Z,2.90
2022-10-07T16:08:57.969Z,2.80
2022-10-07T16:24:04.523Z,2.80
2022-10-07T16:39:09.672Z,3.50
2022-10-07T16:54:16.424Z,3.63
2022-10-07T17:09:21.889Z,2.63
2022-10-07T17:24:26.605Z,4.07
2022-10-07T17:39:31.192Z,7.27
2022-10-07T17:54:37.784Z,3.80
2022-10-07T18:09:42.150Z,5.13
2022-10-07T18:24:46.828Z,6.67
2022-10-07T18:39:51.332Z,7.10
2022-10-07T18:54:55.762Z,5.30
2022-10-07T19:10:00.131Z,5.87
2022-10-07T19:25:22.232Z,6.63
2022-10-07T19:40:26.693Z,5.30
2022-10-07T19:55:32.678Z,6.03
2022-10-07T20:10:39.485Z,16.40
2022-10-07T20:25:45.676Z,9.40
2022-10-07T20:41:11.089Z,7.50
2022-10-07T20:56:16.363Z,6.13
2022-10-07T21:11:21.125Z,9.30
2022-10-07T21:26:25.962Z,6.80
2022-10-07T21:41:34.093Z,6.87
2022-10-07T21:56:38.429Z,6.77
2022-10-07T22:26:48.435Z,5.83
2022-10-07T22:41:53.177Z,5.43
2022-10-07T22:56:57.588Z,5.43
2022-10-07T23:12:01.953Z,5.17
2022-10-07T23:42:10.588Z,5.33
2022-10-07T23:57:14.909Z,3.80
